sensor_id;sensor_type;location;lat;lon;timestamp;P1;durP1;ratioP1;P2;durP2;ratioP2
78410;SDS011;67706;51.074;-1.796;2023-03-05T00:00:38;7.03;;;3.80;;
78410;SDS011;67706;51.074;-1.796;2023-03-05T00:03:05;10.95;;;5.65;;
78410;SDS011;67706;51.074;-1.796;2023-03-05T00:05:32;10.98;;;4.10;;
78410;SDS011;67706;51.074;-1.796;2023-03-05T00:07:58;10.23;;;4.78;;
78410;SDS011;67706;51.074;-1.796;2023-03-05T00:10:25;12.52;;;6.28;;
78410;SDS011;67706;51.074;-1.796;2023-03-05T00:12:52;15.35;;;5.85;;
78410;SDS011;67706;51.074;-1.796;2023-03-05T00:15:20;11.80;;;5.70;;
78410;SDS011;67706;51.074;-1.796;2023-03-05T00:17:47;15.38;;;5.95;;
78410;SDS011;67706;51.074;-1.796;2023-03-05T00:20:13;12.82;;;5.47;;
78410;SDS011;67706;51.074;-1.796;2023-03-05T00:22:40;15.48;;;5.70;;
78410;SDS011;67706;51.074;-1.796;2023-03-05T00:27:34;15.80;;;5.57;;
78410;SDS011;67706;51.074;-1.796;2023-03-05T00:32:28;12.85;;;6.18;;
78410;SDS011;67706;51.074;-1.796;2023-03-05T00:34:55;11.07;;;5.15;;
78410;SDS011;67706;51.074;-1.796;2023-03-05T00:37:22;15.23;;;6.10;;
78410;SDS011;67706;51.074;-1.796;2023-03-05T00:42:15;12.02;;;5.47;;
78410;SDS011;67706;51.074;-1.796;2023-03-05T00:44:42;17.88;;;6.78;;
78410;SDS011;67706;51.074;-1.796;2023-03-05T00:49:36;14.23;;;5.97;;
78410;SDS011;67706;51.074;-1.796;2023-03-05T00:52:03;14.85;;;6.68;;
78410;SDS011;67706;51.074;-1.796;2023-03-05T00:54:30;12.57;;;6.13;;
78410;SDS011;67706;51.074;-1.796;2023-03-05T00:59:23;12.70;;;5.97;;
78410;SDS011;67706;51.074;-1.796;2023-03-05T01:01:50;15.95;;;6.80;;
78410;SDS011;67706;51.074;-1.796;2023-03-05T01:06:44;13.82;;;6.03;;
78410;SDS011;67706;51.074;-1.796;2023-03-05T01:09:11;15.90;;;6.60;;
78410;SDS011;67706;51.074;-1.796;2023-03-05T01:14:04;16.25;;;6.32;;
78410;SDS011;67706;51.074;-1.796;2023-03-05T01:16:31;10.23;;;4.93;;
78410;SDS011;67706;51.074;-1.796;2023-03-05T01:18:58;18.17;;;6.95;;
78410;SDS011;67706;51.074;-1.796;2023-03-05T01:21:25;11.52;;;5.72;;
78410;SDS011;67706;51.074;-1.796;2023-03-05T01:23:53;17.77;;;7.35;;
78410;SDS011;67706;51.074;-1.796;2023-03-05T01:26:19;17.10;;;7.72;;
78410;SDS011;67706;51.074;-1.796;2023-03-05T01:28:46;17.02;;;7.53;;
78410;SDS011;67706;51.074;-1.796;2023-03-05T01:33:39;16.30;;;6.63;;
78410;SDS011;67706;51.074;-1.796;2023-03-05T01:36:07;15.77;;;6.20;;
78410;SDS011;67706;51.074;-1.796;2023-03-05T01:38:37;15.43;;;6.80;;
78410;SDS011;67706;51.074;-1.796;2023-03-05T01:41:05;15.80;;;7.57;;
78410;SDS011;67706;51.074;-1.796;2023-03-05T01:43:32;16.25;;;5.85;;
78410;SDS011;67706;51.074;-1.796;2023-03-05T01:48:45;17.27;;;6.65;;
78410;SDS011;67706;51.074;-1.796;2023-03-05T01:51:16;15.05;;;6.78;;
78410;SDS011;67706;51.074;-1.796;2023-03-05T01:53:45;17.08;;;6.07;;
78410;SDS011;67706;51.074;-1.796;2023-03-05T01:56:14;11.90;;;5.68;;
78410;SDS011;67706;51.074;-1.796;2023-03-05T01:58:42;19.38;;;7.43;;
78410;SDS011;67706;51.074;-1.796;2023-03-05T02:01:09;14.48;;;6.80;;
78410;SDS011;67706;51.074;-1.796;2023-03-05T02:06:03;15.15;;;6.00;;
78410;SDS011;67706;51.074;-1.796;2023-03-05T02:08:30;17.95;;;6.85;;
78410;SDS011;67706;51.074;-1.796;2023-03-05T02:10:57;18.13;;;7.32;;
78410;SDS011;67706;51.074;-1.796;2023-03-05T02:13:26;15.73;;;7.05;;
78410;SDS011;67706;51.074;-1.796;2023-03-05T02:15:56;16.05;;;6.80;;
78410;SDS011;67706;51.074;-1.796;2023-03-05T02:18:25;19.80;;;8.05;;
78410;SDS011;67706;51.074;-1.796;2023-03-05T02:23:28;16.77;;;6.25;;
78410;SDS011;67706;51.074;-1.796;2023-03-05T02:25:56;15.10;;;7.05;;
78410;SDS011;67706;51.074;-1.796;2023-03-05T02:30:51;15.98;;;5.90;;
78410;SDS011;67706;51.074;-1.796;2023-03-05T02:35:45;11.93;;;5.57;;
78410;SDS011;67706;51.074;-1.796;2023-03-05T02:38:14;15.90;;;6.72;;
78410;SDS011;67706;51.074;-1.796;2023-03-05T02:40:43;15.60;;;6.70;;
78410;SDS011;67706;51.074;-1.796;2023-03-05T02:43:10;16.75;;;6.95;;
78410;SDS011;67706;51.074;-1.796;2023-03-05T02:45:37;13.98;;;5.82;;
78410;SDS011;67706;51.074;-1.796;2023-03-05T02:48:05;17.38;;;7.28;;
78410;SDS011;67706;51.074;-1.796;2023-03-05T02:50:32;16.98;;;7.03;;
78410;SDS011;67706;51.074;-1.796;2023-03-05T02:53:00;19.77;;;7.85;;
78410;SDS011;67706;51.074;-1.796;2023-03-05T02:55:28;17.60;;;6.70;;
78410;SDS011;67706;51.074;-1.796;2023-03-05T02:57:55;15.60;;;6.72;;
78410;SDS011;67706;51.074;-1.796;2023-03-05T03:00:22;14.43;;;6.25;;
78410;SDS011;67706;51.074;-1.796;2023-03-05T03:02:50;12.27;;;6.10;;
78410;SDS011;67706;51.074;-1.796;2023-03-05T03:05:17;14.30;;;5.95;;
78410;SDS011;67706;51.074;-1.796;2023-03-05T03:07:44;13.55;;;5.90;;
78410;SDS011;67706;51.074;-1.796;2023-03-05T03:10:11;12.60;;;5.80;;
78410;SDS011;67706;51.074;-1.796;2023-03-05T03:12:40;12.48;;;5.97;;
78410;SDS011;67706;51.074;-1.796;2023-03-05T03:15:09;14.05;;;6.35;;
78410;SDS011;67706;51.074;-1.796;2023-03-05T03:17:38;12.40;;;6.05;;
78410;SDS011;67706;51.074;-1.796;2023-03-05T03:20:06;15.90;;;6.25;;
78410;SDS011;67706;51.074;-1.796;2023-03-05T03:22:35;14.35;;;5.78;;
78410;SDS011;67706;51.074;-1.796;2023-03-05T03:25:03;16.38;;;6.97;;
78410;SDS011;67706;51.074;-1.796;2023-03-05T03:27:30;15.77;;;6.22;;
78410;SDS011;67706;51.074;-1.796;2023-03-05T03:29:59;15.13;;;6.65;;
78410;SDS011;67706;51.074;-1.796;2023-03-05T03:32:28;12.70;;;5.78;;
78410;SDS011;67706;51.074;-1.796;2023-03-05T03:34:55;13.48;;;5.95;;
78410;SDS011;67706;51.074;-1.796;2023-03-05T03:37:22;13.70;;;6.82;;
78410;SDS011;67706;51.074;-1.796;2023-03-05T03:39:50;17.35;;;6.20;;
78410;SDS011;67706;51.074;-1.796;2023-03-05T03:44:43;12.82;;;5.55;;
78410;SDS011;67706;51.074;-1.796;2023-03-05T03:47:12;11.35;;;5.22;;
78410;SDS011;67706;51.074;-1.796;2023-03-05T03:49:38;12.13;;;6.45;;
78410;SDS011;67706;51.074;-1.796;2023-03-05T03:52:05;11.90;;;5.35;;
78410;SDS011;67706;51.074;-1.796;2023-03-05T03:54:33;13.48;;;5.75;;
78410;SDS011;67706;51.074;-1.796;2023-03-05T03:57:00;15.57;;;6.70;;
78410;SDS011;67706;51.074;-1.796;2023-03-05T03:59:27;12.25;;;6.78;;
78410;SDS011;67706;51.074;-1.796;2023-03-05T04:01:54;12.05;;;5.95;;
78410;SDS011;67706;51.074;-1.796;2023-03-05T04:04:22;13.93;;;6.43;;
78410;SDS011;67706;51.074;-1.796;2023-03-05T04:06:50;13.57;;;5.65;;
78410;SDS011;67706;51.074;-1.796;2023-03-05T04:09:17;13.90;;;6.15;;
78410;SDS011;67706;51.074;-1.796;2023-03-05T04:11:44;14.23;;;6.22;;
78410;SDS011;67706;51.074;-1.796;2023-03-05T04:14:11;12.43;;;6.32;;
78410;SDS011;67706;51.074;-1.796;2023-03-05T04:16:38;15.35;;;6.07;;
78410;SDS011;67706;51.074;-1.796;2023-03-05T04:19:05;12.85;;;5.82;;
78410;SDS011;67706;51.074;-1.796;2023-03-05T04:21:33;15.32;;;6.22;;
78410;SDS011;67706;51.074;-1.796;2023-03-05T04:24:00;13.95;;;5.82;;
78410;SDS011;67706;51.074;-1.796;2023-03-05T04:26:27;13.90;;;5.60;;
78410;SDS011;67706;51.074;-1.796;2023-03-05T04:28:54;15.35;;;5.70;;
78410;SDS011;67706;51.074;-1.796;2023-03-05T04:31:21;11.35;;;4.78;;
78410;SDS011;67706;51.074;-1.796;2023-03-05T04:33:47;10.05;;;4.85;;
78410;SDS011;67706;51.074;-1.796;2023-03-05T04:36:14;11.20;;;4.88;;
78410;SDS011;67706;51.074;-1.796;2023-03-05T04:38:43;11.15;;;5.68;;
78410;SDS011;67706;51.074;-1.796;2023-03-05T04:41:09;8.98;;;5.03;;
78410;SDS011;67706;51.074;-1.796;2023-03-05T04:43:36;11.25;;;5.32;;
78410;SDS011;67706;51.074;-1.796;2023-03-05T04:46:03;11.27;;;5.20;;
78410;SDS011;67706;51.074;-1.796;2023-03-05T04:48:30;9.13;;;5.32;;
78410;SDS011;67706;51.074;-1.796;2023-03-05T04:50:57;9.82;;;4.85;;
78410;SDS011;67706;51.074;-1.796;2023-03-05T04:53:24;10.10;;;5.10;;
78410;SDS011;67706;51.074;-1.796;2023-03-05T04:55:53;8.60;;;4.63;;
78410;SDS011;67706;51.074;-1.796;2023-03-05T04:58:20;9.43;;;4.55;;
78410;SDS011;67706;51.074;-1.796;2023-03-05T05:00:47;9.15;;;5.22;;
78410;SDS011;67706;51.074;-1.796;2023-03-05T05:03:14;11.40;;;5.50;;
78410;SDS011;67706;51.074;-1.796;2023-03-05T05:05:41;9.63;;;4.90;;
78410;SDS011;67706;51.074;-1.796;2023-03-05T05:08:08;11.77;;;5.03;;
78410;SDS011;67706;51.074;-1.796;2023-03-05T05:10:36;13.57;;;6.15;;
78410;SDS011;67706;51.074;-1.796;2023-03-05T05:13:05;10.68;;;5.68;;
78410;SDS011;67706;51.074;-1.796;2023-03-05T05:15:32;10.60;;;5.43;;
78410;SDS011;67706;51.074;-1.796;2023-03-05T05:17:59;12.38;;;5.70;;
78410;SDS011;67706;51.074;-1.796;2023-03-05T05:20:26;12.52;;;6.00;;
78410;SDS011;67706;51.074;-1.796;2023-03-05T05:22:53;12.43;;;6.05;;
78410;SDS011;67706;51.074;-1.796;2023-03-05T05:25:20;14.13;;;6.20;;
78410;SDS011;67706;51.074;-1.796;2023-03-05T05:27:47;13.75;;;6.13;;
78410;SDS011;67706;51.074;-1.796;2023-03-05T05:30:16;18.63;;;7.55;;
78410;SDS011;67706;51.074;-1.796;2023-03-05T05:32:42;15.88;;;6.57;;
78410;SDS011;67706;51.074;-1.796;2023-03-05T05:35:10;15.45;;;5.72;;
78410;SDS011;67706;51.074;-1.796;2023-03-05T05:37:37;13.63;;;6.07;;
78410;SDS011;67706;51.074;-1.796;2023-03-05T05:40:04;15.20;;;6.80;;
78410;SDS011;67706;51.074;-1.796;2023-03-05T05:42:32;15.52;;;6.90;;
78410;SDS011;67706;51.074;-1.796;2023-03-05T05:44:59;14.15;;;6.60;;
78410;SDS011;67706;51.074;-1.796;2023-03-05T05:47:29;11.93;;;5.75;;
78410;SDS011;67706;51.074;-1.796;2023-03-05T05:49:56;15.48;;;6.30;;
78410;SDS011;67706;51.074;-1.796;2023-03-05T05:52:23;12.63;;;6.55;;
78410;SDS011;67706;51.074;-1.796;2023-03-05T05:54:50;15.38;;;6.72;;
78410;SDS011;67706;51.074;-1.796;2023-03-05T05:57:17;14.52;;;6.88;;
78410;SDS011;67706;51.074;-1.796;2023-03-05T05:59:44;15.63;;;7.28;;
78410;SDS011;67706;51.074;-1.796;2023-03-05T06:02:10;16.92;;;7.40;;
78410;SDS011;67706;51.074;-1.796;2023-03-05T06:04:39;12.63;;;6.50;;
78410;SDS011;67706;51.074;-1.796;2023-03-05T06:07:06;11.90;;;6.43;;
78410;SDS011;67706;51.074;-1.796;2023-03-05T06:09:34;14.07;;;6.65;;
78410;SDS011;67706;51.074;-1.796;2023-03-05T06:12:01;16.75;;;7.00;;
78410;SDS011;67706;51.074;-1.796;2023-03-05T06:14:28;13.43;;;6.97;;
78410;SDS011;67706;51.074;-1.796;2023-03-05T06:16:55;13.75;;;6.43;;
78410;SDS011;67706;51.074;-1.796;2023-03-05T06:19:22;14.65;;;6.63;;
78410;SDS011;67706;51.074;-1.796;2023-03-05T06:21:50;16.55;;;7.35;;
78410;SDS011;67706;51.074;-1.796;2023-03-05T06:24:17;16.38;;;6.93;;
78410;SDS011;67706;51.074;-1.796;2023-03-05T06:26:44;16.13;;;7.57;;
78410;SDS011;67706;51.074;-1.796;2023-03-05T06:29:12;16.60;;;7.97;;
78410;SDS011;67706;51.074;-1.796;2023-03-05T06:31:39;14.75;;;6.85;;
78410;SDS011;67706;51.074;-1.796;2023-03-05T06:34:06;13.60;;;6.55;;
78410;SDS011;67706;51.074;-1.796;2023-03-05T06:36:33;15.27;;;7.28;;
78410;SDS011;67706;51.074;-1.796;2023-03-05T06:41:30;12.20;;;5.93;;
78410;SDS011;67706;51.074;-1.796;2023-03-05T06:44:01;18.65;;;6.78;;
78410;SDS011;67706;51.074;-1.796;2023-03-05T06:46:28;15.20;;;6.40;;
78410;SDS011;67706;51.074;-1.796;2023-03-05T06:48:57;16.58;;;6.97;;
78410;SDS011;67706;51.074;-1.796;2023-03-05T06:51:26;19.80;;;8.50;;
78410;SDS011;67706;51.074;-1.796;2023-03-05T06:53:55;19.17;;;7.70;;
78410;SDS011;67706;51.074;-1.796;2023-03-05T06:56:26;20.98;;;8.23;;
78410;SDS011;67706;51.074;-1.796;2023-03-05T06:58:53;16.02;;;7.03;;
78410;SDS011;67706;51.074;-1.796;2023-03-05T07:01:20;20.80;;;7.95;;
78410;SDS011;67706;51.074;-1.796;2023-03-05T07:03:48;17.02;;;7.40;;
78410;SDS011;67706;51.074;-1.796;2023-03-05T07:06:16;17.48;;;8.05;;
78410;SDS011;67706;51.074;-1.796;2023-03-05T07:08:43;23.80;;;9.13;;
78410;SDS011;67706;51.074;-1.796;2023-03-05T07:11:10;23.38;;;8.93;;
78410;SDS011;67706;51.074;-1.796;2023-03-05T07:13:39;22.20;;;9.20;;
78410;SDS011;67706;51.074;-1.796;2023-03-05T07:16:08;21.33;;;8.57;;
78410;SDS011;67706;51.074;-1.796;2023-03-05T07:18:36;20.25;;;9.07;;
78410;SDS011;67706;51.074;-1.796;2023-03-05T07:21:02;24.10;;;9.57;;
78410;SDS011;67706;51.074;-1.796;2023-03-05T07:23:30;20.48;;;8.20;;
78410;SDS011;67706;51.074;-1.796;2023-03-05T07:25:59;19.20;;;8.38;;
78410;SDS011;67706;51.074;-1.796;2023-03-05T07:28:26;17.67;;;7.82;;
78410;SDS011;67706;51.074;-1.796;2023-03-05T07:30:56;20.55;;;9.00;;
78410;SDS011;67706;51.074;-1.796;2023-03-05T07:33:23;20.35;;;9.25;;
78410;SDS011;67706;51.074;-1.796;2023-03-05T07:35:50;22.20;;;9.07;;
78410;SDS011;67706;51.074;-1.796;2023-03-05T07:38:17;22.48;;;9.00;;
78410;SDS011;67706;51.074;-1.796;2023-03-05T07:40:43;21.05;;;8.88;;
78410;SDS011;67706;51.074;-1.796;2023-03-05T07:45:38;20.13;;;7.97;;
78410;SDS011;67706;51.074;-1.796;2023-03-05T07:48:07;21.63;;;9.48;;
78410;SDS011;67706;51.074;-1.796;2023-03-05T07:50:38;26.55;;;9.82;;
78410;SDS011;67706;51.074;-1.796;2023-03-05T07:53:05;23.45;;;9.07;;
78410;SDS011;67706;51.074;-1.796;2023-03-05T07:55:32;23.52;;;9.32;;
78410;SDS011;67706;51.074;-1.796;2023-03-05T07:57:59;23.13;;;8.85;;
78410;SDS011;67706;51.074;-1.796;2023-03-05T08:00:26;20.05;;;8.38;;
78410;SDS011;67706;51.074;-1.796;2023-03-05T08:02:53;21.95;;;8.63;;
78410;SDS011;67706;51.074;-1.796;2023-03-05T08:05:21;19.92;;;8.05;;
78410;SDS011;67706;51.074;-1.796;2023-03-05T08:07:48;20.52;;;9.00;;
78410;SDS011;67706;51.074;-1.796;2023-03-05T08:12:41;26.63;;;10.00;;
78410;SDS011;67706;51.074;-1.796;2023-03-05T08:17:35;20.55;;;8.68;;
78410;SDS011;67706;51.074;-1.796;2023-03-05T08:20:02;23.20;;;9.18;;
78410;SDS011;67706;51.074;-1.796;2023-03-05T08:22:36;22.20;;;9.63;;
78410;SDS011;67706;51.074;-1.796;2023-03-05T08:25:03;24.23;;;9.20;;
78410;SDS011;67706;51.074;-1.796;2023-03-05T08:27:30;19.20;;;8.15;;
78410;SDS011;67706;51.074;-1.796;2023-03-05T08:29:57;21.92;;;9.05;;
78410;SDS011;67706;51.074;-1.796;2023-03-05T08:32:27;21.15;;;8.90;;
78410;SDS011;67706;51.074;-1.796;2023-03-05T08:34:54;19.27;;;8.10;;
78410;SDS011;67706;51.074;-1.796;2023-03-05T08:37:22;8.35;;;4.47;;
78410;SDS011;67706;51.074;-1.796;2023-03-05T08:39:50;16.15;;;7.18;;
78410;SDS011;67706;51.074;-1.796;2023-03-05T08:42:17;15.55;;;6.72;;
78410;SDS011;67706;51.074;-1.796;2023-03-05T08:44:44;11.45;;;5.72;;
78410;SDS011;67706;51.074;-1.796;2023-03-05T08:47:11;7.60;;;3.92;;
78410;SDS011;67706;51.074;-1.796;2023-03-05T08:49:38;10.80;;;4.70;;
78410;SDS011;67706;51.074;-1.796;2023-03-05T08:52:05;11.07;;;4.78;;
78410;SDS011;67706;51.074;-1.796;2023-03-05T08:54:32;9.55;;;4.70;;
78410;SDS011;67706;51.074;-1.796;2023-03-05T08:57:00;7.55;;;4.18;;
78410;SDS011;67706;51.074;-1.796;2023-03-05T08:59:27;10.43;;;4.35;;
78410;SDS011;67706;51.074;-1.796;2023-03-05T09:04:20;5.47;;;2.58;;
78410;SDS011;67706;51.074;-1.796;2023-03-05T09:06:47;5.35;;;2.25;;
78410;SDS011;67706;51.074;-1.796;2023-03-05T09:11:40;5.32;;;2.85;;
78410;SDS011;67706;51.074;-1.796;2023-03-05T09:16:35;4.63;;;2.40;;
78410;SDS011;67706;51.074;-1.796;2023-03-05T09:19:04;4.82;;;2.35;;
78410;SDS011;67706;51.074;-1.796;2023-03-05T09:21:33;3.50;;;2.60;;
78410;SDS011;67706;51.074;-1.796;2023-03-05T09:24:00;6.35;;;3.03;;
78410;SDS011;67706;51.074;-1.796;2023-03-05T09:26:27;6.40;;;2.55;;
78410;SDS011;67706;51.074;-1.796;2023-03-05T09:31:22;3.58;;;2.42;;
78410;SDS011;67706;51.074;-1.796;2023-03-05T09:33:49;3.60;;;2.42;;
78410;SDS011;67706;51.074;-1.796;2023-03-05T09:36:17;4.00;;;2.10;;
78410;SDS011;67706;51.074;-1.796;2023-03-05T09:38:45;3.40;;;1.83;;
78410;SDS011;67706;51.074;-1.796;2023-03-05T09:43:43;1.83;;;1.35;;
78410;SDS011;67706;51.074;-1.796;2023-03-05T09:46:25;3.13;;;2.40;;
78410;SDS011;67706;51.074;-1.796;2023-03-05T09:48:58;3.53;;;2.38;;
78410;SDS011;67706;51.074;-1.796;2023-03-05T09:51:31;6.22;;;3.03;;
78410;SDS011;67706;51.074;-1.796;2023-03-05T09:54:04;4.60;;;2.58;;
78410;SDS011;67706;51.074;-1.796;2023-03-05T09:56:33;3.35;;;2.25;;
78410;SDS011;67706;51.074;-1.796;2023-03-05T09:59:02;3.67;;;2.10;;
78410;SDS011;67706;51.074;-1.796;2023-03-05T10:01:41;3.28;;;2.22;;
78410;SDS011;67706;51.074;-1.796;2023-03-05T10:04:10;4.05;;;2.83;;
78410;SDS011;67706;51.074;-1.796;2023-03-05T10:06:43;6.55;;;2.25;;
78410;SDS011;67706;51.074;-1.796;2023-03-05T10:09:16;5.68;;;3.13;;
78410;SDS011;67706;51.074;-1.796;2023-03-05T10:11:53;5.03;;;3.30;;
78410;SDS011;67706;51.074;-1.796;2023-03-05T10:14:25;5.78;;;3.00;;
78410;SDS011;67706;51.074;-1.796;2023-03-05T10:20:04;9.45;;;3.75;;
78410;SDS011;67706;51.074;-1.796;2023-03-05T10:22:41;4.72;;;3.30;;
78410;SDS011;67706;51.074;-1.796;2023-03-05T10:25:25;5.63;;;3.05;;
78410;SDS011;67706;51.074;-1.796;2023-03-05T10:28:08;6.22;;;3.30;;
78410;SDS011;67706;51.074;-1.796;2023-03-05T10:30:50;6.10;;;3.10;;
78410;SDS011;67706;51.074;-1.796;2023-03-05T10:33:29;6.07;;;3.33;;
78410;SDS011;67706;51.074;-1.796;2023-03-05T10:36:11;6.55;;;3.60;;
78410;SDS011;67706;51.074;-1.796;2023-03-05T10:39:14;7.03;;;3.00;;
78410;SDS011;67706;51.074;-1.796;2023-03-05T10:41:59;6.30;;;3.05;;
78410;SDS011;67706;51.074;-1.796;2023-03-05T10:44:32;4.90;;;3.17;;
78410;SDS011;67706;51.074;-1.796;2023-03-05T10:47:06;6.70;;;3.70;;
78410;SDS011;67706;51.074;-1.796;2023-03-05T10:49:42;7.05;;;3.25;;
78410;SDS011;67706;51.074;-1.796;2023-03-05T10:52:17;4.05;;;2.58;;
78410;SDS011;67706;51.074;-1.796;2023-03-05T10:54:48;5.25;;;3.05;;
78410;SDS011;67706;51.074;-1.796;2023-03-05T10:57:17;7.15;;;3.00;;
78410;SDS011;67706;51.074;-1.796;2023-03-05T10:59:46;3.67;;;2.58;;
78410;SDS011;67706;51.074;-1.796;2023-03-05T11:02:16;4.10;;;2.22;;
78410;SDS011;67706;51.074;-1.796;2023-03-05T11:04:44;4.93;;;2.83;;
78410;SDS011;67706;51.074;-1.796;2023-03-05T11:10:05;6.50;;;3.08;;
78410;SDS011;67706;51.074;-1.796;2023-03-05T11:12:40;10.13;;;3.30;;
78410;SDS011;67706;51.074;-1.796;2023-03-05T11:15:18;6.57;;;3.45;;
78410;SDS011;67706;51.074;-1.796;2023-03-05T11:18:03;5.80;;;3.33;;
78410;SDS011;67706;51.074;-1.796;2023-03-05T11:20:45;4.55;;;3.10;;
78410;SDS011;67706;51.074;-1.796;2023-03-05T11:23:14;4.72;;;2.92;;
78410;SDS011;67706;51.074;-1.796;2023-03-05T11:25:52;4.05;;;3.03;;
78410;SDS011;67706;51.074;-1.796;2023-03-05T11:28:26;6.15;;;3.30;;
78410;SDS011;67706;51.074;-1.796;2023-03-05T11:30:58;8.15;;;3.35;;
78410;SDS011;67706;51.074;-1.796;2023-03-05T11:33:28;3.33;;;2.63;;
78410;SDS011;67706;51.074;-1.796;2023-03-05T11:36:09;6.22;;;3.08;;
78410;SDS011;67706;51.074;-1.796;2023-03-05T11:38:44;5.43;;;2.40;;
78410;SDS011;67706;51.074;-1.796;2023-03-05T11:41:15;7.25;;;3.40;;
78410;SDS011;67706;51.074;-1.796;2023-03-05T11:43:48;5.45;;;2.78;;
78410;SDS011;67706;51.074;-1.796;2023-03-05T11:46:17;5.07;;;2.17;;
78410;SDS011;67706;51.074;-1.796;2023-03-05T11:48:46;4.97;;;2.72;;
78410;SDS011;67706;51.074;-1.796;2023-03-05T11:51:14;3.97;;;2.45;;
78410;SDS011;67706;51.074;-1.796;2023-03-05T11:56:17;3.88;;;2.50;;
78410;SDS011;67706;51.074;-1.796;2023-03-05T11:58:47;5.10;;;2.88;;
78410;SDS011;67706;51.074;-1.796;2023-03-05T12:01:18;4.82;;;2.67;;
78410;SDS011;67706;51.074;-1.796;2023-03-05T12:03:46;6.50;;;2.58;;
78410;SDS011;67706;51.074;-1.796;2023-03-05T12:06:16;2.53;;;1.88;;
78410;SDS011;67706;51.074;-1.796;2023-03-05T12:08:48;4.88;;;2.35;;
78410;SDS011;67706;51.074;-1.796;2023-03-05T12:11:19;5.50;;;2.67;;
78410;SDS011;67706;51.074;-1.796;2023-03-05T12:13:50;3.83;;;2.05;;
78410;SDS011;67706;51.074;-1.796;2023-03-05T12:16:22;9.10;;;2.30;;
78410;SDS011;67706;51.074;-1.796;2023-03-05T12:18:57;4.13;;;2.55;;
78410;SDS011;67706;51.074;-1.796;2023-03-05T12:21:35;4.28;;;2.55;;
78410;SDS011;67706;51.074;-1.796;2023-03-05T12:29:59;4.65;;;2.50;;
78410;SDS011;67706;51.074;-1.796;2023-03-05T12:35:30;5.88;;;2.33;;
78410;SDS011;67706;51.074;-1.796;2023-03-05T12:38:05;4.00;;;2.58;;
78410;SDS011;67706;51.074;-1.796;2023-03-05T12:40:44;6.22;;;3.88;;
78410;SDS011;67706;51.074;-1.796;2023-03-05T12:43:27;3.83;;;2.53;;
78410;SDS011;67706;51.074;-1.796;2023-03-05T12:48:47;3.63;;;2.05;;
78410;SDS011;67706;51.074;-1.796;2023-03-05T12:51:26;4.38;;;2.80;;
78410;SDS011;67706;51.074;-1.796;2023-03-05T12:56:48;6.10;;;2.50;;
78410;SDS011;67706;51.074;-1.796;2023-03-05T12:59:18;6.32;;;2.78;;
78410;SDS011;67706;51.074;-1.796;2023-03-05T13:01:49;3.67;;;2.53;;
78410;SDS011;67706;51.074;-1.796;2023-03-05T13:04:18;2.83;;;1.75;;
78410;SDS011;67706;51.074;-1.796;2023-03-05T13:06:56;3.03;;;2.22;;
78410;SDS011;67706;51.074;-1.796;2023-03-05T13:09:25;6.40;;;2.50;;
78410;SDS011;67706;51.074;-1.796;2023-03-05T13:11:57;4.53;;;2.53;;
78410;SDS011;67706;51.074;-1.796;2023-03-05T13:14:28;4.70;;;2.70;;
78410;SDS011;67706;51.074;-1.796;2023-03-05T13:16:58;5.38;;;2.25;;
78410;SDS011;67706;51.074;-1.796;2023-03-05T13:19:25;6.35;;;2.30;;
78410;SDS011;67706;51.074;-1.796;2023-03-05T13:21:58;6.53;;;3.70;;
78410;SDS011;67706;51.074;-1.796;2023-03-05T13:24:26;6.95;;;1.98;;
78410;SDS011;67706;51.074;-1.796;2023-03-05T13:26:54;4.72;;;2.88;;
78410;SDS011;67706;51.074;-1.796;2023-03-05T13:29:23;4.10;;;2.35;;
78410;SDS011;67706;51.074;-1.796;2023-03-05T13:31:53;4.40;;;2.70;;
78410;SDS011;67706;51.074;-1.796;2023-03-05T13:34:22;5.38;;;2.90;;
78410;SDS011;67706;51.074;-1.796;2023-03-05T13:36:52;6.25;;;2.97;;
78410;SDS011;67706;51.074;-1.796;2023-03-05T13:39:24;4.13;;;2.03;;
78410;SDS011;67706;51.074;-1.796;2023-03-05T13:42:00;3.92;;;2.42;;
78410;SDS011;67706;51.074;-1.796;2023-03-05T13:44:30;3.65;;;1.88;;
78410;SDS011;67706;51.074;-1.796;2023-03-05T13:47:08;4.75;;;2.60;;
78410;SDS011;67706;51.074;-1.796;2023-03-05T13:49:41;5.53;;;2.70;;
78410;SDS011;67706;51.074;-1.796;2023-03-05T13:52:08;4.03;;;2.88;;
78410;SDS011;67706;51.074;-1.796;2023-03-05T13:54:39;7.75;;;3.22;;
78410;SDS011;67706;51.074;-1.796;2023-03-05T13:57:07;5.18;;;2.92;;
78410;SDS011;67706;51.074;-1.796;2023-03-05T13:59:35;4.03;;;1.92;;
78410;SDS011;67706;51.074;-1.796;2023-03-05T14:02:10;3.90;;;2.35;;
78410;SDS011;67706;51.074;-1.796;2023-03-05T14:04:42;5.82;;;3.25;;
78410;SDS011;67706;51.074;-1.796;2023-03-05T14:07:20;3.72;;;2.40;;
78410;SDS011;67706;51.074;-1.796;2023-03-05T14:10:02;5.10;;;2.47;;
78410;SDS011;67706;51.074;-1.796;2023-03-05T14:12:32;3.72;;;2.45;;
78410;SDS011;67706;51.074;-1.796;2023-03-05T14:15:03;4.05;;;2.35;;
78410;SDS011;67706;51.074;-1.796;2023-03-05T14:17:44;5.30;;;3.20;;
78410;SDS011;67706;51.074;-1.796;2023-03-05T14:20:20;4.15;;;1.80;;
78410;SDS011;67706;51.074;-1.796;2023-03-05T14:22:49;4.68;;;2.40;;
78410;SDS011;67706;51.074;-1.796;2023-03-05T14:25:25;5.30;;;2.55;;
78410;SDS011;67706;51.074;-1.796;2023-03-05T14:27:59;3.78;;;2.10;;
78410;SDS011;67706;51.074;-1.796;2023-03-05T14:30:27;3.90;;;2.63;;
78410;SDS011;67706;51.074;-1.796;2023-03-05T14:32:55;5.22;;;2.50;;
78410;SDS011;67706;51.074;-1.796;2023-03-05T14:35:25;8.48;;;3.20;;
78410;SDS011;67706;51.074;-1.796;2023-03-05T14:37:54;7.88;;;2.85;;
78410;SDS011;67706;51.074;-1.796;2023-03-05T14:40:25;6.68;;;3.10;;
78410;SDS011;67706;51.074;-1.796;2023-03-05T14:42:54;5.28;;;2.30;;
78410;SDS011;67706;51.074;-1.796;2023-03-05T14:45:23;4.78;;;2.58;;
78410;SDS011;67706;51.074;-1.796;2023-03-05T14:47:52;8.45;;;3.25;;
78410;SDS011;67706;51.074;-1.796;2023-03-05T14:50:21;4.60;;;2.45;;
78410;SDS011;67706;51.074;-1.796;2023-03-05T14:52:50;6.20;;;3.50;;
78410;SDS011;67706;51.074;-1.796;2023-03-05T14:55:20;4.10;;;2.67;;
78410;SDS011;67706;51.074;-1.796;2023-03-05T14:57:48;2.88;;;2.13;;
78410;SDS011;67706;51.074;-1.796;2023-03-05T15:00:16;6.00;;;2.90;;
78410;SDS011;67706;51.074;-1.796;2023-03-05T15:02:44;6.35;;;3.20;;
78410;SDS011;67706;51.074;-1.796;2023-03-05T15:05:12;6.72;;;3.40;;
78410;SDS011;67706;51.074;-1.796;2023-03-05T15:07:39;4.88;;;3.00;;
78410;SDS011;67706;51.074;-1.796;2023-03-05T15:10:09;6.35;;;2.70;;
78410;SDS011;67706;51.074;-1.796;2023-03-05T15:12:39;6.13;;;3.38;;
78410;SDS011;67706;51.074;-1.796;2023-03-05T15:15:07;10.20;;;3.17;;
78410;SDS011;67706;51.074;-1.796;2023-03-05T15:17:35;5.20;;;3.78;;
78410;SDS011;67706;51.074;-1.796;2023-03-05T15:20:04;6.38;;;2.95;;
78410;SDS011;67706;51.074;-1.796;2023-03-05T15:22:35;3.35;;;2.30;;
78410;SDS011;67706;51.074;-1.796;2023-03-05T15:25:02;6.70;;;3.60;;
78410;SDS011;67706;51.074;-1.796;2023-03-05T15:27:29;5.40;;;3.35;;
78410;SDS011;67706;51.074;-1.796;2023-03-05T15:29:56;5.70;;;3.67;;
78410;SDS011;67706;51.074;-1.796;2023-03-05T15:32:24;7.25;;;3.13;;
78410;SDS011;67706;51.074;-1.796;2023-03-05T15:34:52;9.15;;;3.75;;
78410;SDS011;67706;51.074;-1.796;2023-03-05T15:37:18;5.82;;;3.30;;
78410;SDS011;67706;51.074;-1.796;2023-03-05T15:39:46;6.00;;;3.05;;
78410;SDS011;67706;51.074;-1.796;2023-03-05T15:42:13;8.43;;;3.47;;
78410;SDS011;67706;51.074;-1.796;2023-03-05T15:44:40;5.00;;;2.80;;
78410;SDS011;67706;51.074;-1.796;2023-03-05T15:47:06;6.18;;;3.90;;
78410;SDS011;67706;51.074;-1.796;2023-03-05T15:49:33;9.05;;;3.85;;
78410;SDS011;67706;51.074;-1.796;2023-03-05T15:52:00;6.53;;;2.97;;
78410;SDS011;67706;51.074;-1.796;2023-03-05T15:54:27;7.15;;;3.30;;
78410;SDS011;67706;51.074;-1.796;2023-03-05T15:56:55;10.25;;;3.70;;
78410;SDS011;67706;51.074;-1.796;2023-03-05T15:59:22;7.43;;;3.67;;